Time;durP1;ratioP1;P1;durP2;ratioP2;P2;SDS_P1;SDS_P2;PMS_P1;PMS_P2;Temp;Humidity;BMP_temperature;BMP_pressure;BME280_temperature;BME280_humidity;BME280_pressure;Samples;Min_cycle;Max_cycle;Signal;HPM_P1;HPM_P2
2021/10/31 00:00:37;;;;;;;9.77;7.30;;;;;;;;;;10353736;28;20041;-78
2021/10/31 00:05:37;;;;;;;12.90;5.85;;;;;;;;;;10338445;28;20538;-78
2021/10/31 00:10:38;;;;;;;9.00;5.53;;;;;;;;;;10338097;28;20137;-78
2021/10/31 00:15:38;;;;;;;13.93;5.43;;;;;;;;;;10336921;28;20353;-78
2021/10/31 00:20:39;;;;;;;10.27;5.97;;;;;;;;;;10353637;28;20085;-78
2021/10/31 00:25:39;;;;;;;11.07;5.47;;;;;;;;;;10339442;28;20030;-78
2021/10/31 00:30:40;;;;;;;20.10;5.40;;;;;;;;;;10353698;28;20426;-78
2021/10/31 00:35:42;;;;;;;7.60;5.97;;;;;;;;;;10376438;28;20010;-79
2021/10/31 00:40:44;;;;;;;9.95;6.75;;;;;;;;;;10375007;28;20022;-78
2021/10/31 00:45:45;;;;;;;11.75;5.57;;;;;;;;;;10351544;28;20034;-78
2021/10/31 00:50:48;;;;;;;11.50;6.60;;;;;;;;;;10336060;28;20031;-78
2021/10/31 00:55:49;;;;;;;16.65;6.50;;;;;;;;;;10350777;28;20668;-77
2021/10/31 01:00:50;;;;;;;13.75;5.53;;;;;;;;;;10350675;28;20041;-78
2021/10/31 01:05:51;;;;;;;9.00;5.00;;;;;;;;;;10351503;28;20030;-78
2021/10/31 01:10:56;;;;;;;13.82;5.35;;;;;;;;;;10350883;28;20291;-78
2021/10/31 01:16:09;;;;;;;9.32;5.10;;;;;;;;;;10351585;28;20037;-78
2021/10/31 01:21:24;;;;;;;12.93;5.63;;;;;;;;;;10350436;28;20453;-78
2021/10/31 01:26:24;;;;;;;5.35;4.75;;;;;;;;;;10351303;28;20125;-78
2021/10/31 01:31:33;;;;;;;19.38;5.05;;;;;;;;;;10334941;28;20499;-78
2021/10/31 01:36:52;;;;;;;18.58;6.75;;;;;;;;;;10334819;28;20026;-78
2021/10/31 01:42:13;;;;;;;11.60;5.43;;;;;;;;;;10334339;28;20034;-77
2021/10/31 01:47:36;;;;;;;10.63;4.57;;;;;;;;;;10333000;28;20042;-77
2021/10/31 01:52:38;;;;;;;15.52;5.72;;;;;;;;;;10332175;28;20034;-77
2021/10/31 01:57:39;;;;;;;9.98;5.65;;;;;;;;;;10349233;28;20030;-76
2021/10/31 02:02:40;;;;;;;12.98;6.78;;;;;;;;;;10351654;28;20407;-77
2021/10/31 02:07:41;;;;;;;5.43;4.90;;;;;;;;;;10343466;28;20050;-76
2021/10/31 02:12:41;;;;;;;11.65;5.00;;;;;;;;;;10342763;28;20084;-76
2021/10/31 02:17:43;;;;;;;7.72;4.93;;;;;;;;;;10341611;28;20101;-76
2021/10/31 02:22:53;;;;;;;17.05;6.20;;;;;;;;;;10340207;28;20038;-76
2021/10/31 02:27:53;;;;;;;6.85;5.22;;;;;;;;;;10356194;28;20114;-77
2021/10/31 02:32:54;;;;;;;15.70;6.45;;;;;;;;;;10340459;28;20113;-77
2021/10/31 02:37:54;;;;;;;6.60;4.83;;;;;;;;;;10340776;28;20022;-76
2021/10/31 02:42:54;;;;;;;18.88;5.43;;;;;;;;;;10355177;28;20343;-78
2021/10/31 02:47:55;;;;;;;7.43;4.45;;;;;;;;;;10340734;28;20472;-76
2021/10/31 02:53:04;;;;;;;19.98;4.53;;;;;;;;;;10340510;28;20136;-77
2021/10/31 02:58:05;;;;;;;6.32;4.40;;;;;;;;;;10340577;28;20018;-77
2021/10/31 03:03:06;;;;;;;11.93;5.75;;;;;;;;;;10341363;28;20034;-76
2021/10/31 03:08:06;;;;;;;9.90;4.63;;;;;;;;;;10355399;28;20054;-76
2021/10/31 03:13:06;;;;;;;9.05;5.28;;;;;;;;;;10339989;28;20037;-76
2021/10/31 03:18:07;;;;;;;9.40;5.72;;;;;;;;;;10339216;28;20022;-76
2021/10/31 03:23:07;;;;;;;14.68;5.75;;;;;;;;;;10339439;28;20484;-76
2021/10/31 03:28:07;;;;;;;8.20;6.50;;;;;;;;;;10338397;28;20569;-77
2021/10/31 03:33:07;;;;;;;9.30;7.18;;;;;;;;;;10338255;28;20092;-77
2021/10/31 03:38:08;;;;;;;8.43;7.63;;;;;;;;;;10338789;28;20448;-76
2021/10/31 03:43:08;;;;;;;7.45;5.60;;;;;;;;;;10337802;28;20034;-76
2021/10/31 03:48:08;;;;;;;10.93;6.18;;;;;;;;;;10338030;28;20356;-76
2021/10/31 03:53:08;;;;;;;8.07;6.33;;;;;;;;;;10338005;28;20088;-76
2021/10/31 03:58:09;;;;;;;12.45;6.60;;;;;;;;;;10337685;28;20364;-76
2021/10/31 04:03:09;;;;;;;11.37;6.07;;;;;;;;;;10337612;28;20030;-77
2021/10/31 04:08:10;;;;;;;11.55;6.93;;;;;;;;;;10337811;28;20382;-77
2021/10/31 04:13:10;;;;;;;12.73;7.55;;;;;;;;;;10351745;28;20129;-77
2021/10/31 04:18:10;;;;;;;7.35;6.50;;;;;;;;;;10336765;28;20456;-77
2021/10/31 04:23:12;;;;;;;11.90;8.95;;;;;;;;;;10337898;28;20081;-77
2021/10/31 04:28:12;;;;;;;10.43;8.30;;;;;;;;;;10338262;28;20368;-77
2021/10/31 04:33:12;;;;;;;10.02;8.60;;;;;;;;;;10336503;28;20035;-78
2021/10/31 04:38:19;;;;;;;10.27;7.85;;;;;;;;;;10336804;28;20030;-75
2021/10/31 04:43:23;;;;;;;14.40;8.43;;;;;;;;;;10336911;28;20418;-76
2021/10/31 04:48:24;;;;;;;17.85;11.82;;;;;;;;;;10336506;28;20042;-77
2021/10/31 04:53:24;;;;;;;13.70;9.80;;;;;;;;;;10350884;28;20081;-76
2021/10/31 04:58:25;;;;;;;14.20;10.05;;;;;;;;;;10336130;28;20361;-76
2021/10/31 05:03:25;;;;;;;14.68;12.15;;;;;;;;;;10334553;28;20034;-76
2021/10/31 05:08:26;;;;;;;12.38;10.98;;;;;;;;;;10335480;28;20392;-76
2021/10/31 05:13:26;;;;;;;13.20;11.75;;;;;;;;;;10334917;28;20030;-76
2021/10/31 05:18:26;;;;;;;13.68;10.15;;;;;;;;;;10350891;28;20080;-76
2021/10/31 05:23:28;;;;;;;15.50;12.30;;;;;;;;;;10335912;28;20440;-76
2021/10/31 05:28:28;;;;;;;17.42;11.55;;;;;;;;;;10349751;28;20426;-76
2021/10/31 05:33:29;;;;;;;31.55;13.02;;;;;;;;;;10333457;28;20189;-76
2021/10/31 05:38:29;;;;;;;15.88;14.10;;;;;;;;;;10334722;28;20333;-77
2021/10/31 05:43:30;;;;;;;24.92;15.68;;;;;;;;;;10334263;28;20026;-78
2021/10/31 05:48:30;;;;;;;16.10;14.48;;;;;;;;;;10349117;28;20560;-78
2021/10/31 05:53:30;;;;;;;16.77;13.65;;;;;;;;;;10332510;28;20472;-76
2021/10/31 05:58:30;;;;;;;23.75;15.18;;;;;;;;;;10333765;28;20023;-77
2021/10/31 06:03:31;;;;;;;16.13;13.38;;;;;;;;;;10332891;28;20129;-76
2021/10/31 06:08:31;;;;;;;24.05;15.93;;;;;;;;;;10333921;28;20058;-76
2021/10/31 06:13:31;;;;;;;27.20;16.30;;;;;;;;;;10348657;28;20027;-77
2021/10/31 06:18:31;;;;;;;15.23;13.63;;;;;;;;;;10331584;28;20494;-76
2021/10/31 06:23:32;;;;;;;18.83;13.35;;;;;;;;;;10333278;28;20030;-76
2021/10/31 06:28:32;;;;;;;24.10;15.00;;;;;;;;;;10348887;28;20464;-76
2021/10/31 06:33:33;;;;;;;18.27;13.50;;;;;;;;;;10348456;28;20057;-75
2021/10/31 06:38:33;;;;;;;17.00;13.10;;;;;;;;;;10335347;28;20469;-78
2021/10/31 06:43:34;;;;;;;15.60;13.40;;;;;;;;;;10335206;28;20035;-76
2021/10/31 06:48:34;;;;;;;18.48;13.23;;;;;;;;;;10333327;28;20420;-76
2021/10/31 06:53:34;;;;;;;16.33;13.52;;;;;;;;;;10337613;28;20125;-76
2021/10/31 06:58:35;;;;;;;15.65;12.88;;;;;;;;;;10341204;28;20027;-78
2021/10/31 07:03:35;;;;;;;17.83;13.95;;;;;;;;;;10340361;28;20084;-77
2021/10/31 07:08:35;;;;;;;16.90;14.20;;;;;;;;;;10340399;28;20451;-76
2021/10/31 07:13:36;;;;;;;18.60;15.20;;;;;;;;;;10340148;28;20273;-75
2021/10/31 07:18:36;;;;;;;18.63;14.40;;;;;;;;;;10339407;28;20495;-78
2021/10/31 07:23:36;;;;;;;21.23;15.23;;;;;;;;;;10340165;28;20035;-78
2021/10/31 07:28:36;;;;;;;18.33;14.50;;;;;;;;;;10339073;28;20030;-78
2021/10/31 07:33:37;;;;;;;18.40;13.90;;;;;;;;;;10340190;28;20049;-77
2021/10/31 07:38:40;;;;;;;21.20;14.73;;;;;;;;;;10354375;28;20464;-75
2021/10/31 07:43:40;;;;;;;17.70;13.82;;;;;;;;;;10338315;28;20034;-78
2021/10/31 07:48:40;;;;;;;17.30;14.20;;;;;;;;;;10338802;28;20030;-74
2021/10/31 07:53:43;;;;;;;18.23;14.23;;;;;;;;;;10338221;28;20334;-75
2021/10/31 07:58:46;;;;;;;21.20;13.15;;;;;;;;;;10338030;28;20030;-75
2021/10/31 08:03:46;;;;;;;17.48;12.70;;;;;;;;;;10337993;28;20034;-76
2021/10/31 08:08:47;;;;;;;14.75;10.90;;;;;;;;;;10353010;28;20069;-78
2021/10/31 08:13:47;;;;;;;11.63;10.20;;;;;;;;;;10337384;28;20476;-76
2021/10/31 08:18:47;;;;;;;17.52;11.45;;;;;;;;;;10335852;28;20031;-72
2021/10/31 08:23:48;;;;;;;10.10;9.05;;;;;;;;;;10352468;28;20037;-74
2021/10/31 08:28:49;;;;;;;8.93;8.13;;;;;;;;;;10334662;28;20167;-74
2021/10/31 08:33:55;;;;;;;9.55;6.90;;;;;;;;;;10352099;28;20037;-73
2021/10/31 08:38:55;;;;;;;9.68;8.48;;;;;;;;;;10352398;28;20050;-73
2021/10/31 08:43:57;;;;;;;11.60;7.43;;;;;;;;;;10335189;28;20057;-74
2021/10/31 08:48:57;;;;;;;8.50;7.53;;;;;;;;;;10350614;28;20311;-75
2021/10/31 08:53:58;;;;;;;6.93;5.72;;;;;;;;;;10335387;28;20054;-73
2021/10/31 08:58:58;;;;;;;6.55;5.90;;;;;;;;;;10336133;28;20105;-72
2021/10/31 09:03:59;;;;;;;6.20;5.57;;;;;;;;;;10339640;28;20121;-73
2021/10/31 09:09:00;;;;;;;6.40;5.80;;;;;;;;;;10336432;28;20055;-73
2021/10/31 09:14:00;;;;;;;9.95;5.75;;;;;;;;;;10335662;28;20026;-75
2021/10/31 09:19:01;;;;;;;6.43;5.13;;;;;;;;;;10334658;28;20056;-73
2021/10/31 09:24:01;;;;;;;4.95;4.47;;;;;;;;;;10335112;28;20030;-73
2021/10/31 09:29:02;;;;;;;4.93;4.47;;;;;;;;;;10333910;28;20038;-74
2021/10/31 09:34:02;;;;;;;5.72;4.47;;;;;;;;;;10333942;28;20109;-74
2021/10/31 09:39:04;;;;;;;5.65;5.03;;;;;;;;;;10333659;28;20454;-73
2021/10/31 09:44:21;;;;;;;5.35;3.92;;;;;;;;;;10348842;28;20081;-74
2021/10/31 09:49:22;;;;;;;3.43;3.13;;;;;;;;;;10333945;28;20026;-73
2021/10/31 09:54:41;;;;;;;4.25;3.70;;;;;;;;;;10334772;28;20034;-75
2021/10/31 09:59:49;;;;;;;4.70;4.20;;;;;;;;;;10333966;28;20026;-74
2021/10/31 10:04:49;;;;;;;7.55;3.90;;;;;;;;;;10332925;28;20025;-73
2021/10/31 10:09:51;;;;;;;4.68;3.65;;;;;;;;;;10348235;28;20065;-74
2021/10/31 10:14:55;;;;;;;7.13;4.72;;;;;;;;;;10336888;28;20027;-74
2021/10/31 10:19:58;;;;;;;3.53;3.22;;;;;;;;;;10351914;28;20023;-76
2021/10/31 10:24:58;;;;;;;5.65;3.75;;;;;;;;;;10349734;28;20030;-73
2021/10/31 10:29:59;;;;;;;6.80;4.32;;;;;;;;;;10340529;28;20386;-75
2021/10/31 10:34:59;;;;;;;9.48;3.33;;;;;;;;;;10355707;28;20027;-73
2021/10/31 10:40:03;;;;;;;14.30;3.42;;;;;;;;;;10340431;28;20022;-75
2021/10/31 10:45:05;;;;;;;4.97;3.33;;;;;;;;;;10341083;28;20067;-76
2021/10/31 10:50:05;;;;;;;17.90;3.88;;;;;;;;;;10356827;28;20104;-77
2021/10/31 10:55:07;;;;;;;6.40;2.77;;;;;;;;;;10355996;28;20498;-74
2021/10/31 11:00:10;;;;;;;3.13;2.90;;;;;;;;;;10339621;28;20260;-75
2021/10/31 11:05:11;;;;;;;9.32;2.22;;;;;;;;;;10339699;28;20034;-75
2021/10/31 11:10:13;;;;;;;4.38;3.13;;;;;;;;;;10338110;28;20138;-74
2021/10/31 11:15:15;;;;;;;4.18;2.20;;;;;;;;;;10344681;28;20038;-74
2021/10/31 11:20:19;;;;;;;2.10;2.00;;;;;;;;;;10355756;28;20463;-74
2021/10/31 11:25:21;;;;;;;9.93;2.00;;;;;;;;;;10338172;28;20137;-75
2021/10/31 11:30:21;;;;;;;1.95;1.75;;;;;;;;;;10338471;28;20114;-74
2021/10/31 11:35:22;;;;;;;1.67;1.58;;;;;;;;;;10338079;28;20543;-74
2021/10/31 11:40:25;;;;;;;1.57;1.50;;;;;;;;;;10338316;28;20030;-75
2021/10/31 11:45:33;;;;;;;5.63;2.58;;;;;;;;;;10353589;28;20629;-74
2021/10/31 11:50:34;;;;;;;1.67;1.58;;;;;;;;;;10337868;28;20026;-77
2021/10/31 11:55:34;;;;;;;2.53;2.33;;;;;;;;;;10352366;28;20035;-74
2021/10/31 12:00:34;;;;;;;3.38;2.65;;;;;;;;;;10336282;28;20026;-77
2021/10/31 12:05:41;;;;;;;2.55;2.35;;;;;;;;;;10337420;28;20044;-77
2021/10/31 12:10:51;;;;;;;9.90;2.78;;;;;;;;;;10335943;28;20062;-77
2021/10/31 12:15:58;;;;;;;2.95;2.67;;;;;;;;;;10338599;28;20109;-82
2021/10/31 12:20:58;;;;;;;2.35;2.22;;;;;;;;;;10342180;28;20031;-76
2021/10/31 12:26:00;;;;;;;4.07;2.33;;;;;;;;;;10335137;28;20434;-77
2021/10/31 12:31:19;;;;;;;2.47;2.28;;;;;;;;;;10335643;28;20035;-78
2021/10/31 12:36:29;;;;;;;4.68;2.92;;;;;;;;;;10335720;28;20113;-77
2021/10/31 12:41:33;;;;;;;5.05;2.35;;;;;;;;;;10336469;28;20379;-78
2021/10/31 12:46:33;;;;;;;3.17;2.78;;;;;;;;;;10350917;28;20444;-77
2021/10/31 12:51:40;;;;;;;2.63;2.42;;;;;;;;;;10335019;28;20038;-79
2021/10/31 12:56:41;;;;;;;2.63;2.42;;;;;;;;;;10334416;28;20081;-79
2021/10/31 13:01:41;;;;;;;4.90;2.13;;;;;;;;;;10337414;28;20053;-79
2021/10/31 13:06:57;;;;;;;2.45;1.85;;;;;;;;;;10336384;28;20117;-79
2021/10/31 13:11:57;;;;;;;3.83;3.15;;;;;;;;;;10340649;28;20500;-78
2021/10/31 13:16:58;;;;;;;2.15;1.95;;;;;;;;;;10335035;28;20532;-80
2021/10/31 13:22:01;;;;;;;3.30;3.00;;;;;;;;;;10333143;28;20069;-78
2021/10/31 13:27:02;;;;;;;4.68;3.17;;;;;;;;;;10350085;28;20054;-78
2021/10/31 13:32:10;;;;;;;2.92;2.72;;;;;;;;;;10350105;28;20484;-80
2021/10/31 13:37:11;;;;;;;17.15;3.25;;;;;;;;;;10334411;28;20097;-80
2021/10/31 13:42:15;;;;;;;3.13;2.92;;;;;;;;;;10332837;28;20494;-77
2021/10/31 13:47:30;;;;;;;8.88;3.10;;;;;;;;;;10334224;28;20034;-77
2021/10/31 13:52:31;;;;;;;3.35;2.72;;;;;;;;;;10334225;28;20129;-76
2021/10/31 13:57:31;;;;;;;7.80;3.20;;;;;;;;;;10332747;28;20130;-78
2021/10/31 14:02:31;;;;;;;2.88;2.60;;;;;;;;;;10361840;28;20484;-78
2021/10/31 14:07:35;;;;;;;3.40;3.13;;;;;;;;;;10346818;28;20502;-76
2021/10/31 14:12:35;;;;;;;3.25;3.05;;;;;;;;;;10347804;28;20030;-76
2021/10/31 14:17:36;;;;;;;5.50;3.78;;;;;;;;;;10300058;28;20133;-76
2021/10/31 14:22:44;;;;;;;4.22;3.83;;;;;;;;;;10346245;28;20026;-76
2021/10/31 14:27:46;;;;;;;3.90;3.55;;;;;;;;;;10348081;28;20031;-79
2021/10/31 14:32:49;;;;;;;4.85;3.08;;;;;;;;;;10345345;28;20034;-80
2021/10/31 14:38:25;;;;;;;4.63;4.15;;;;;;;;;;10346363;28;20033;-78
2021/10/31 14:43:25;;;;;;;4.53;3.53;;;;;;;;;;10343157;28;20479;-78
2021/10/31 14:48:27;;;;;;;3.93;2.97;;;;;;;;;;10346871;28;20037;-78
2021/10/31 14:53:27;;;;;;;4.72;3.78;;;;;;;;;;10361265;28;20264;-76
2021/10/31 14:58:27;;;;;;;3.03;2.83;;;;;;;;;;10348386;28;20049;-77
2021/10/31 15:03:27;;;;;;;3.85;2.50;;;;;;;;;;10346003;28;20030;-75
2021/10/31 15:08:28;;;;;;;3.70;3.30;;;;;;;;;;10345559;28;20404;-74
2021/10/31 15:13:28;;;;;;;7.80;3.50;;;;;;;;;;10355540;28;20109;-77
2021/10/31 15:18:28;;;;;;;3.15;2.95;;;;;;;;;;10337501;28;20401;-76
2021/10/31 15:23:29;;;;;;;2.88;2.75;;;;;;;;;;10339135;28;20155;-75
2021/10/31 15:28:29;;;;;;;4.70;3.15;;;;;;;;;;10340674;28;20146;-75
2021/10/31 15:33:34;;;;;;;3.37;2.33;;;;;;;;;;10338321;28;20088;-76
2021/10/31 15:38:34;;;;;;;3.13;2.80;;;;;;;;;;10297817;28;20279;-75
2021/10/31 15:43:35;;;;;;;2.42;2.33;;;;;;;;;;10340493;28;20057;-74
2021/10/31 15:48:35;;;;;;;3.13;2.78;;;;;;;;;;10339350;28;20482;-74
2021/10/31 15:53:35;;;;;;;2.97;2.75;;;;;;;;;;10354225;28;20034;-74
2021/10/31 15:58:35;;;;;;;7.68;3.30;;;;;;;;;;10352792;28;20367;-73
2021/10/31 16:03:36;;;;;;;3.15;2.85;;;;;;;;;;10337334;28;20101;-73
2021/10/31 16:08:36;;;;;;;3.88;3.20;;;;;;;;;;10337043;28;20105;-73
2021/10/31 16:13:36;;;;;;;4.33;4.00;;;;;;;;;;10337288;28;20054;-72
2021/10/31 16:18:36;;;;;;;3.45;1.70;;;;;;;;;;10337039;28;20292;-73
2021/10/31 16:23:36;;;;;;;1.95;1.33;;;;;;;;;;10336138;28;20104;-72
2021/10/31 16:28:37;;;;;;;1.48;1.38;;;;;;;;;;10336623;28;20117;-71
2021/10/31 16:33:37;;;;;;;6.70;2.03;;;;;;;;;;10335047;28;20041;-71
2021/10/31 16:38:37;;;;;;;9.05;1.65;;;;;;;;;;10338566;28;20026;-72
2021/10/31 16:43:38;;;;;;;3.38;1.58;;;;;;;;;;10335991;28;20151;-70
2021/10/31 16:48:38;;;;;;;3.45;2.05;;;;;;;;;;10336374;28;20175;-70
2021/10/31 16:53:38;;;;;;;12.80;2.35;;;;;;;;;;10350917;28;20068;-70
2021/10/31 16:58:38;;;;;;;12.88;3.38;;;;;;;;;;10351877;28;20034;-68
2021/10/31 17:03:38;;;;;;;5.63;2.88;;;;;;;;;;10335073;28;20039;-68
2021/10/31 17:08:39;;;;;;;10.68;3.45;;;;;;;;;;10335077;28;20065;-69
2021/10/31 17:13:39;;;;;;;7.38;2.25;;;;;;;;;;10335047;28;20046;-70
2021/10/31 17:18:39;;;;;;;11.90;3.95;;;;;;;;;;10334613;28;20030;-68
2021/10/31 17:23:40;;;;;;;11.45;4.10;;;;;;;;;;10335170;28;20040;-68
2021/10/31 17:28:40;;;;;;;15.02;4.63;;;;;;;;;;10334449;28;20121;-70
2021/10/31 17:33:41;;;;;;;15.80;5.07;;;;;;;;;;10332361;28;20382;-69
2021/10/31 17:38:41;;;;;;;12.20;4.13;;;;;;;;;;10348845;28;20039;-70
2021/10/31 17:43:41;;;;;;;20.35;5.72;;;;;;;;;;10333674;28;20042;-69
2021/10/31 17:48:42;;;;;;;25.98;6.93;;;;;;;;;;10349088;28;20038;-69
2021/10/31 17:53:42;;;;;;;20.33;5.53;;;;;;;;;;10332885;28;20476;-69
2021/10/31 17:58:42;;;;;;;18.05;5.38;;;;;;;;;;10348851;28;20407;-69
2021/10/31 18:03:42;;;;;;;33.75;7.28;;;;;;;;;;10348682;28;20031;-69
2021/10/31 18:08:43;;;;;;;24.55;6.30;;;;;;;;;;10332450;28;20154;-69
2021/10/31 18:13:43;;;;;;;15.05;3.53;;;;;;;;;;10348676;28;20073;-69
2021/10/31 18:18:43;;;;;;;15.07;5.93;;;;;;;;;;10332037;28;20023;-70
2021/10/31 18:23:43;;;;;;;17.30;7.15;;;;;;;;;;10333210;28;20038;-69
2021/10/31 18:28:44;;;;;;;16.80;4.47;;;;;;;;;;10333047;28;20030;-69
2021/10/31 18:33:44;;;;;;;22.52;6.63;;;;;;;;;;10334983;28;20104;-69
2021/10/31 18:38:44;;;;;;;14.40;5.57;;;;;;;;;;10333114;28;20154;-70
2021/10/31 18:43:45;;;;;;;20.77;5.03;;;;;;;;;;10333050;28;20112;-71
2021/10/31 18:48:48;;;;;;;24.67;5.53;;;;;;;;;;10351539;28;20042;-69
2021/10/31 18:53:48;;;;;;;13.65;4.72;;;;;;;;;;10355106;28;20452;-69
2021/10/31 18:58:49;;;;;;;35.25;6.65;;;;;;;;;;10340206;28;20089;-68
2021/10/31 19:03:50;;;;;;;20.85;5.97;;;;;;;;;;10339969;28;20026;-69
2021/10/31 19:08:50;;;;;;;6.85;4.10;;;;;;;;;;10339723;28;20062;-69
2021/10/31 19:13:50;;;;;;;12.52;5.10;;;;;;;;;;10339425;28;20122;-68
2021/10/31 19:18:50;;;;;;;16.33;3.75;;;;;;;;;;10339303;28;20030;-69
2021/10/31 19:23:51;;;;;;;21.05;7.35;;;;;;;;;;10339191;28;20046;-69
2021/10/31 19:28:51;;;;;;;15.65;6.00;;;;;;;;;;10337776;28;20113;-68
2021/10/31 19:33:52;;;;;;;16.05;6.10;;;;;;;;;;10338937;28;20419;-70
2021/10/31 19:38:52;;;;;;;22.65;7.35;;;;;;;;;;10338732;28;20057;-69
2021/10/31 19:43:53;;;;;;;27.85;7.35;;;;;;;;;;10339902;28;20026;-69
2021/10/31 19:48:53;;;;;;;26.30;4.65;;;;;;;;;;10341668;28;20037;-69
2021/10/31 19:53:54;;;;;;;12.88;4.85;;;;;;;;;;10339610;28;20069;-69
2021/10/31 19:58:54;;;;;;;30.17;7.38;;;;;;;;;;10341028;28;20030;-69
2021/10/31 20:03:54;;;;;;;29.83;7.20;;;;;;;;;;10347269;28;20054;-69
2021/10/31 20:08:54;;;;;;;16.42;6.05;;;;;;;;;;10341627;28;20062;-68
2021/10/31 20:13:57;;;;;;;24.63;7.27;;;;;;;;;;10338015;28;20475;-68
2021/10/31 20:18:57;;;;;;;21.50;5.88;;;;;;;;;;10338196;28;20292;-68
2021/10/31 20:23:59;;;;;;;21.05;5.55;;;;;;;;;;10336278;28;20116;-69
2021/10/31 20:28:59;;;;;;;25.45;5.30;;;;;;;;;;10335253;28;20460;-68
2021/10/31 20:34:00;;;;;;;31.17;5.72;;;;;;;;;;10336298;28;20045;-68
2021/10/31 20:39:00;;;;;;;23.88;6.13;;;;;;;;;;10336277;28;20082;-69
2021/10/31 20:44:00;;;;;;;10.80;4.45;;;;;;;;;;10335525;28;20026;-68
2021/10/31 20:49:00;;;;;;;18.40;5.32;;;;;;;;;;10335076;28;20040;-69
2021/10/31 20:54:01;;;;;;;26.85;7.40;;;;;;;;;;10335677;28;20092;-70
2021/10/31 20:59:03;;;;;;;15.77;5.13;;;;;;;;;;10336097;28;20030;-68
2021/10/31 21:04:04;;;;;;;27.75;5.60;;;;;;;;;;10334739;28;20034;-68
2021/10/31 21:09:04;;;;;;;21.67;6.55;;;;;;;;;;10335767;28;20057;-69
2021/10/31 21:14:05;;;;;;;25.63;6.00;;;;;;;;;;10335052;28;20031;-69
2021/10/31 21:19:05;;;;;;;29.63;6.80;;;;;;;;;;10335255;28;20113;-69
2021/10/31 21:24:12;;;;;;;18.33;5.65;;;;;;;;;;10350047;28;20096;-69
2021/10/31 21:29:12;;;;;;;;;;;;;;;;;;10334860;28;20467;-69
2021/10/31 21:34:19;;;;;;;21.38;6.82;;;;;;;;;;10334940;28;19940;-70
2021/10/31 21:39:24;;;;;;;26.35;6.90;;;;;;;;;;10334204;28;20398;-69
2021/10/31 21:44:24;;;;;;;19.70;6.97;;;;;;;;;;10336840;28;20048;-68
2021/10/31 21:49:25;;;;;;;26.27;6.70;;;;;;;;;;10333434;28;20121;-70
2021/10/31 21:54:25;;;;;;;22.02;5.32;;;;;;;;;;10333813;28;20034;-69
2021/10/31 21:59:26;;;;;;;27.42;5.70;;;;;;;;;;10334868;28;20022;-68
2021/10/31 22:04:26;;;;;;;22.30;5.10;;;;;;;;;;10333598;28;20026;-69
2021/10/31 22:09:26;;;;;;;23.88;4.90;;;;;;;;;;10333859;28;20077;-69
2021/10/31 22:14:27;;;;;;;9.88;4.63;;;;;;;;;;10333537;28;20027;-68
2021/10/31 22:19:27;;;;;;;15.57;4.88;;;;;;;;;;10349143;28;20022;-69
2021/10/31 22:24:28;;;;;;;19.75;4.65;;;;;;;;;;10341153;28;20063;-70
2021/10/31 22:29:28;;;;;;;17.48;4.93;;;;;;;;;;10341421;28;20057;-68
2021/10/31 22:34:28;;;;;;;22.15;6.47;;;;;;;;;;10341668;28;20129;-69
2021/10/31 22:39:28;;;;;;;12.88;6.22;;;;;;;;;;10341078;28;20037;-68
2021/10/31 22:44:30;;;;;;;22.17;5.82;;;;;;;;;;10340397;28;20030;-69
2021/10/31 22:49:30;;;;;;;18.25;5.45;;;;;;;;;;10340879;28;20058;-68
2021/10/31 22:54:30;;;;;;;23.02;6.25;;;;;;;;;;10339280;28;20065;-69
2021/10/31 22:59:30;;;;;;;29.10;4.63;;;;;;;;;;10340958;28;20030;-70
2021/10/31 23:04:34;;;;;;;11.68;3.58;;;;;;;;;;10339942;28;20030;-68
2021/10/31 23:09:34;;;;;;;18.75;4.55;;;;;;;;;;10339798;28;20054;-68
2021/10/31 23:14:35;;;;;;;13.45;4.70;;;;;;;;;;10339313;28;20520;-69
2021/10/31 23:19:35;;;;;;;11.43;4.22;;;;;;;;;;10358773;28;20110;-69
2021/10/31 23:24:35;;;;;;;8.63;3.85;;;;;;;;;;10338647;28;20092;-68
2021/10/31 23:29:36;;;;;;;5.13;2.45;;;;;;;;;;10340202;28;20464;-69
2021/10/31 23:34:36;;;;;;;10.32;4.35;;;;;;;;;;10354421;28;20054;-69
2021/10/31 23:39:36;;;;;;;8.10;3.78;;;;;;;;;;10337594;28;20068;-69
2021/10/31 23:44:36;;;;;;;5.53;2.63;;;;;;;;;;10338638;28;20038;-69
2021/10/31 23:49:37;;;;;;;11.32;5.80;;;;;;;;;;10338386;28;20283;-70
2021/10/31 23:54:38;;;;;;;12.73;3.35;;;;;;;;;;10353717;28;20129;-69
2021/10/31 23:59:38;;;;;;;9.55;3.60;;;;;;;;;;10338633;28;20114;-69
